sensor_id;sensor_type;location;lat;lon;timestamp;temperature;humidity
40996;DHT22;26723;57.478;12.066;2024-01-30T00:00:38;4.40;99.90
40996;DHT22;26723;57.478;12.066;2024-01-30T00:03:46;4.40;99.90
40996;DHT22;26723;57.478;12.066;2024-01-30T00:06:55;4.40;99.90
40996;DHT22;26723;57.478;12.066;2024-01-30T00:10:04;4.40;99.90
40996;DHT22;26723;57.478;12.066;2024-01-30T00:13:13;4.50;99.90
40996;DHT22;26723;57.478;12.066;2024-01-30T00:16:27;4.50;99.90
40996;DHT22;26723;57.478;12.066;2024-01-30T00:19:36;4.50;99.90
40996;DHT22;26723;57.478;12.066;2024-01-30T00:22:44;4.60;99.90
40996;DHT22;26723;57.478;12.066;2024-01-30T00:25:53;4.50;99.90
40996;DHT22;26723;57.478;12.066;2024-01-30T00:29:02;4.50;99.90
40996;DHT22;26723;57.478;12.066;2024-01-30T00:32:12;4.50;99.90
40996;DHT22;26723;57.478;12.066;2024-01-30T00:35:21;4.50;99.90
40996;DHT22;26723;57.478;12.066;2024-01-30T00:38:31;4.60;99.90
40996;DHT22;26723;57.478;12.066;2024-01-30T00:41:39;4.60;99.90
40996;DHT22;26723;57.478;12.066;2024-01-30T00:44:48;4.60;99.90
40996;DHT22;26723;57.478;12.066;2024-01-30T00:47:58;4.60;99.90
40996;DHT22;26723;57.478;12.066;2024-01-30T00:51:06;4.70;99.90
40996;DHT22;26723;57.478;12.066;2024-01-30T00:54:15;4.70;99.90
40996;DHT22;26723;57.478;12.066;2024-01-30T00:57:24;4.70;99.90
40996;DHT22;26723;57.478;12.066;2024-01-30T01:00:34;4.70;99.90
40996;DHT22;26723;57.478;12.066;2024-01-30T01:03:44;4.70;99.90
40996;DHT22;26723;57.478;12.066;2024-01-30T01:06:53;4.70;99.90
40996;DHT22;26723;57.478;12.066;2024-01-30T01:10:01;4.80;99.90
40996;DHT22;26723;57.478;12.066;2024-01-30T01:13:11;4.70;99.90
40996;DHT22;26723;57.478;12.066;2024-01-30T01:16:20;4.70;99.90
40996;DHT22;26723;57.478;12.066;2024-01-30T01:19:31;4.70;99.90
40996;DHT22;26723;57.478;12.066;2024-01-30T01:22:39;4.80;99.90
40996;DHT22;26723;57.478;12.066;2024-01-30T01:25:48;4.80;99.90
40996;DHT22;26723;57.478;12.066;2024-01-30T01:28:57;4.80;99.90
40996;DHT22;26723;57.478;12.066;2024-01-30T01:32:06;4.80;99.90
40996;DHT22;26723;57.478;12.066;2024-01-30T01:35:15;4.80;99.90
40996;DHT22;26723;57.478;12.066;2024-01-30T01:38:24;4.70;99.90
40996;DHT22;26723;57.478;12.066;2024-01-30T01:41:33;4.70;99.90
40996;DHT22;26723;57.478;12.066;2024-01-30T01:44:41;4.70;99.90
40996;DHT22;26723;57.478;12.066;2024-01-30T01:47:51;4.70;99.90
40996;DHT22;26723;57.478;12.066;2024-01-30T01:51:02;4.70;99.90
40996;DHT22;26723;57.478;12.066;2024-01-30T01:54:11;4.70;99.90
40996;DHT22;26723;57.478;12.066;2024-01-30T01:57:20;4.70;99.90
40996;DHT22;26723;57.478;12.066;2024-01-30T02:00:29;4.80;99.90
40996;DHT22;26723;57.478;12.066;2024-01-30T02:03:38;4.80;99.90
40996;DHT22;26723;57.478;12.066;2024-01-30T02:06:48;4.80;99.90
40996;DHT22;26723;57.478;12.066;2024-01-30T02:09:57;4.70;99.90
40996;DHT22;26723;57.478;12.066;2024-01-30T02:13:05;4.80;99.90
40996;DHT22;26723;57.478;12.066;2024-01-30T02:16:14;4.80;99.90
40996;DHT22;26723;57.478;12.066;2024-01-30T02:19:24;4.80;99.90
40996;DHT22;26723;57.478;12.066;2024-01-30T02:22:34;4.80;99.90
40996;DHT22;26723;57.478;12.066;2024-01-30T02:25:44;4.70;99.90
40996;DHT22;26723;57.478;12.066;2024-01-30T02:28:53;4.80;99.90
40996;DHT22;26723;57.478;12.066;2024-01-30T02:32:01;4.80;99.90
40996;DHT22;26723;57.478;12.066;2024-01-30T02:35:10;4.70;99.90
40996;DHT22;26723;57.478;12.066;2024-01-30T02:38:20;4.80;99.90
40996;DHT22;26723;57.478;12.066;2024-01-30T02:41:29;4.80;99.90
40996;DHT22;26723;57.478;12.066;2024-01-30T02:44:37;4.80;99.90
40996;DHT22;26723;57.478;12.066;2024-01-30T02:47:46;4.80;99.90
40996;DHT22;26723;57.478;12.066;2024-01-30T02:50:54;4.80;99.90
40996;DHT22;26723;57.478;12.066;2024-01-30T02:54:05;4.70;99.90
40996;DHT22;26723;57.478;12.066;2024-01-30T02:57:13;4.70;99.90
40996;DHT22;26723;57.478;12.066;2024-01-30T03:00:23;4.70;99.90
40996;DHT22;26723;57.478;12.066;2024-01-30T03:03:31;4.70;99.90
40996;DHT22;26723;57.478;12.066;2024-01-30T03:06:45;4.70;99.90
40996;DHT22;26723;57.478;12.066;2024-01-30T03:09:56;4.70;99.90
40996;DHT22;26723;57.478;12.066;2024-01-30T03:13:05;4.70;99.90
40996;DHT22;26723;57.478;12.066;2024-01-30T03:16:13;4.70;99.90
40996;DHT22;26723;57.478;12.066;2024-01-30T03:19:22;4.70;99.90
40996;DHT22;26723;57.478;12.066;2024-01-30T03:22:31;4.80;99.90
40996;DHT22;26723;57.478;12.066;2024-01-30T03:25:41;4.80;99.90
40996;DHT22;26723;57.478;12.066;2024-01-30T03:28:49;4.80;99.90
40996;DHT22;26723;57.478;12.066;2024-01-30T03:31:58;4.80;99.90
40996;DHT22;26723;57.478;12.066;2024-01-30T03:35:07;4.80;99.90
40996;DHT22;26723;57.478;12.066;2024-01-30T03:38:15;4.80;99.90
40996;DHT22;26723;57.478;12.066;2024-01-30T03:41:25;4.80;99.90
40996;DHT22;26723;57.478;12.066;2024-01-30T03:44:34;4.80;99.90
40996;DHT22;26723;57.478;12.066;2024-01-30T03:47:43;4.80;99.90
40996;DHT22;26723;57.478;12.066;2024-01-30T03:50:52;4.80;99.90
40996;DHT22;26723;57.478;12.066;2024-01-30T03:54:00;4.70;99.90
40996;DHT22;26723;57.478;12.066;2024-01-30T03:57:10;4.70;99.90
40996;DHT22;26723;57.478;12.066;2024-01-30T04:00:19;4.60;99.90
40996;DHT22;26723;57.478;12.066;2024-01-30T04:03:28;4.60;99.90
40996;DHT22;26723;57.478;12.066;2024-01-30T04:06:36;4.60;99.90
40996;DHT22;26723;57.478;12.066;2024-01-30T04:09:45;4.60;99.90
40996;DHT22;26723;57.478;12.066;2024-01-30T04:12:55;4.60;99.90
40996;DHT22;26723;57.478;12.066;2024-01-30T04:16:04;4.60;99.90
40996;DHT22;26723;57.478;12.066;2024-01-30T04:19:13;4.60;99.90
40996;DHT22;26723;57.478;12.066;2024-01-30T04:22:22;4.60;99.90
40996;DHT22;26723;57.478;12.066;2024-01-30T04:25:30;4.60;99.90
40996;DHT22;26723;57.478;12.066;2024-01-30T04:28:41;4.70;99.90
40996;DHT22;26723;57.478;12.066;2024-01-30T04:31:51;4.70;99.90
40996;DHT22;26723;57.478;12.066;2024-01-30T04:34:59;4.60;99.90
40996;DHT22;26723;57.478;12.066;2024-01-30T04:38:09;4.70;99.90
40996;DHT22;26723;57.478;12.066;2024-01-30T04:41:17;4.60;99.90
40996;DHT22;26723;57.478;12.066;2024-01-30T04:44:27;4.60;99.90
40996;DHT22;26723;57.478;12.066;2024-01-30T04:47:36;4.60;99.90
40996;DHT22;26723;57.478;12.066;2024-01-30T04:50:44;4.60;99.90
40996;DHT22;26723;57.478;12.066;2024-01-30T04:53:53;4.60;99.90
40996;DHT22;26723;57.478;12.066;2024-01-30T04:57:01;4.60;99.90
40996;DHT22;26723;57.478;12.066;2024-01-30T05:00:12;4.60;99.90
40996;DHT22;26723;57.478;12.066;2024-01-30T05:03:21;4.50;99.90
40996;DHT22;26723;57.478;12.066;2024-01-30T05:06:31;4.40;99.90
40996;DHT22;26723;57.478;12.066;2024-01-30T05:09:40;4.40;99.90
40996;DHT22;26723;57.478;12.066;2024-01-30T05:12:48;4.50;99.90
40996;DHT22;26723;57.478;12.066;2024-01-30T05:15:58;4.50;99.90
40996;DHT22;26723;57.478;12.066;2024-01-30T05:19:07;4.50;99.90
40996;DHT22;26723;57.478;12.066;2024-01-30T05:22:16;4.50;99.90
40996;DHT22;26723;57.478;12.066;2024-01-30T05:25:26;4.50;99.90
40996;DHT22;26723;57.478;12.066;2024-01-30T05:28:34;4.50;99.90
40996;DHT22;26723;57.478;12.066;2024-01-30T05:31:45;4.50;99.90
40996;DHT22;26723;57.478;12.066;2024-01-30T05:34:53;4.60;99.90
40996;DHT22;26723;57.478;12.066;2024-01-30T05:38:02;4.60;99.90
40996;DHT22;26723;57.478;12.066;2024-01-30T05:41:11;4.60;99.90
40996;DHT22;26723;57.478;12.066;2024-01-30T05:44:19;4.60;99.90
40996;DHT22;26723;57.478;12.066;2024-01-30T05:47:30;4.70;99.90
40996;DHT22;26723;57.478;12.066;2024-01-30T05:50:38;4.70;99.90
40996;DHT22;26723;57.478;12.066;2024-01-30T05:53:47;4.70;99.90
40996;DHT22;26723;57.478;12.066;2024-01-30T05:56:55;4.70;99.90
40996;DHT22;26723;57.478;12.066;2024-01-30T06:00:06;4.70;99.90
40996;DHT22;26723;57.478;12.066;2024-01-30T06:03:17;4.70;99.90
40996;DHT22;26723;57.478;12.066;2024-01-30T06:06:25;4.70;99.90
40996;DHT22;26723;57.478;12.066;2024-01-30T06:09:34;4.60;99.90
40996;DHT22;26723;57.478;12.066;2024-01-30T06:12:42;4.60;99.90
40996;DHT22;26723;57.478;12.066;2024-01-30T06:15:51;4.70;99.90
40996;DHT22;26723;57.478;12.066;2024-01-30T06:19:01;4.70;99.90
40996;DHT22;26723;57.478;12.066;2024-01-30T06:22:09;4.60;99.90
40996;DHT22;26723;57.478;12.066;2024-01-30T06:25:18;4.60;99.90
40996;DHT22;26723;57.478;12.066;2024-01-30T06:28:27;4.60;99.90
40996;DHT22;26723;57.478;12.066;2024-01-30T06:31:40;4.60;99.90
40996;DHT22;26723;57.478;12.066;2024-01-30T06:34:50;4.60;99.90
40996;DHT22;26723;57.478;12.066;2024-01-30T06:37:58;4.70;99.90
40996;DHT22;26723;57.478;12.066;2024-01-30T06:41:07;4.70;99.90
40996;DHT22;26723;57.478;12.066;2024-01-30T06:44:15;4.60;99.90
40996;DHT22;26723;57.478;12.066;2024-01-30T06:47:24;4.70;99.90
40996;DHT22;26723;57.478;12.066;2024-01-30T06:50:34;4.70;99.90
40996;DHT22;26723;57.478;12.066;2024-01-30T06:53:43;4.70;99.90
40996;DHT22;26723;57.478;12.066;2024-01-30T06:56:51;4.80;99.90
40996;DHT22;26723;57.478;12.066;2024-01-30T07:00:00;4.70;99.90
40996;DHT22;26723;57.478;12.066;2024-01-30T07:03:08;4.80;99.90
40996;DHT22;26723;57.478;12.066;2024-01-30T07:06:18;4.80;99.90
40996;DHT22;26723;57.478;12.066;2024-01-30T07:09:29;4.80;99.90
40996;DHT22;26723;57.478;12.066;2024-01-30T07:12:38;4.80;99.90
40996;DHT22;26723;57.478;12.066;2024-01-30T07:15:46;4.80;99.90
40996;DHT22;26723;57.478;12.066;2024-01-30T07:18:55;4.90;99.90
40996;DHT22;26723;57.478;12.066;2024-01-30T07:22:06;4.90;99.90
40996;DHT22;26723;57.478;12.066;2024-01-30T07:25:15;4.80;99.90
40996;DHT22;26723;57.478;12.066;2024-01-30T07:28:24;4.80;99.90
40996;DHT22;26723;57.478;12.066;2024-01-30T07:31:32;4.80;99.90
40996;DHT22;26723;57.478;12.066;2024-01-30T07:34:41;4.90;99.90
40996;DHT22;26723;57.478;12.066;2024-01-30T07:38:10;4.90;99.90
40996;DHT22;26723;57.478;12.066;2024-01-30T07:41:19;4.90;99.90
40996;DHT22;26723;57.478;12.066;2024-01-30T07:44:27;4.90;99.90
40996;DHT22;26723;57.478;12.066;2024-01-30T07:47:36;4.90;99.90
40996;DHT22;26723;57.478;12.066;2024-01-30T07:50:44;4.80;99.90
40996;DHT22;26723;57.478;12.066;2024-01-30T07:53:54;4.90;99.90
40996;DHT22;26723;57.478;12.066;2024-01-30T07:57:04;4.90;99.90
40996;DHT22;26723;57.478;12.066;2024-01-30T08:00:14;4.80;99.90
40996;DHT22;26723;57.478;12.066;2024-01-30T08:03:23;4.70;99.90
40996;DHT22;26723;57.478;12.066;2024-01-30T08:06:32;4.70;99.90
40996;DHT22;26723;57.478;12.066;2024-01-30T08:09:42;4.70;99.90
40996;DHT22;26723;57.478;12.066;2024-01-30T08:12:50;4.70;99.90
40996;DHT22;26723;57.478;12.066;2024-01-30T08:15:59;4.70;99.90
40996;DHT22;26723;57.478;12.066;2024-01-30T08:19:09;4.80;99.90
40996;DHT22;26723;57.478;12.066;2024-01-30T08:22:17;4.90;99.90
40996;DHT22;26723;57.478;12.066;2024-01-30T08:25:27;4.90;99.90
40996;DHT22;26723;57.478;12.066;2024-01-30T08:28:37;5.00;99.90
40996;DHT22;26723;57.478;12.066;2024-01-30T08:31:46;5.20;99.90
40996;DHT22;26723;57.478;12.066;2024-01-30T08:34:54;5.20;99.90
40996;DHT22;26723;57.478;12.066;2024-01-30T08:38:03;5.10;99.90
40996;DHT22;26723;57.478;12.066;2024-01-30T08:41:13;5.20;99.90
40996;DHT22;26723;57.478;12.066;2024-01-30T08:44:22;5.10;99.90
40996;DHT22;26723;57.478;12.066;2024-01-30T08:47:30;5.20;99.90
40996;DHT22;26723;57.478;12.066;2024-01-30T08:50:41;5.00;99.90
40996;DHT22;26723;57.478;12.066;2024-01-30T08:53:49;5.00;99.90
40996;DHT22;26723;57.478;12.066;2024-01-30T08:57:00;5.10;99.90
40996;DHT22;26723;57.478;12.066;2024-01-30T09:00:10;5.10;99.90
40996;DHT22;26723;57.478;12.066;2024-01-30T09:03:19;5.00;99.90
40996;DHT22;26723;57.478;12.066;2024-01-30T09:06:27;5.00;99.90
40996;DHT22;26723;57.478;12.066;2024-01-30T09:09:37;4.90;99.90
40996;DHT22;26723;57.478;12.066;2024-01-30T09:12:49;4.90;99.90
40996;DHT22;26723;57.478;12.066;2024-01-30T09:15:57;4.90;99.90
40996;DHT22;26723;57.478;12.066;2024-01-30T09:19:06;4.80;99.90
40996;DHT22;26723;57.478;12.066;2024-01-30T09:22:14;4.80;99.90
40996;DHT22;26723;57.478;12.066;2024-01-30T09:25:23;4.80;99.90
40996;DHT22;26723;57.478;12.066;2024-01-30T09:28:33;4.90;99.90
40996;DHT22;26723;57.478;12.066;2024-01-30T09:31:43;4.90;99.90
40996;DHT22;26723;57.478;12.066;2024-01-30T09:34:52;4.90;99.90
40996;DHT22;26723;57.478;12.066;2024-01-30T09:38:00;5.00;99.90
40996;DHT22;26723;57.478;12.066;2024-01-30T09:41:10;4.90;99.90
40996;DHT22;26723;57.478;12.066;2024-01-30T09:44:20;4.90;99.90
40996;DHT22;26723;57.478;12.066;2024-01-30T09:47:31;4.90;99.90
40996;DHT22;26723;57.478;12.066;2024-01-30T09:50:41;5.00;99.90
40996;DHT22;26723;57.478;12.066;2024-01-30T09:53:49;5.00;99.90
40996;DHT22;26723;57.478;12.066;2024-01-30T09:56:58;5.00;99.90
40996;DHT22;26723;57.478;12.066;2024-01-30T10:00:09;5.00;99.90
40996;DHT22;26723;57.478;12.066;2024-01-30T10:03:19;4.90;99.90
40996;DHT22;26723;57.478;12.066;2024-01-30T10:06:28;5.00;99.90
40996;DHT22;26723;57.478;12.066;2024-01-30T10:09:37;4.90;99.90
40996;DHT22;26723;57.478;12.066;2024-01-30T10:12:46;5.00;99.90
40996;DHT22;26723;57.478;12.066;2024-01-30T10:15:57;5.00;99.90
40996;DHT22;26723;57.478;12.066;2024-01-30T10:19:06;5.00;99.90
40996;DHT22;26723;57.478;12.066;2024-01-30T10:22:15;5.00;99.90
40996;DHT22;26723;57.478;12.066;2024-01-30T10:25:25;5.10;99.90
40996;DHT22;26723;57.478;12.066;2024-01-30T10:28:34;5.10;99.90
40996;DHT22;26723;57.478;12.066;2024-01-30T10:31:44;5.20;99.90
40996;DHT22;26723;57.478;12.066;2024-01-30T10:34:54;5.30;99.90
40996;DHT22;26723;57.478;12.066;2024-01-30T10:38:03;5.30;99.90
40996;DHT22;26723;57.478;12.066;2024-01-30T10:41:15;5.30;99.90
40996;DHT22;26723;57.478;12.066;2024-01-30T10:44:26;5.30;99.90
40996;DHT22;26723;57.478;12.066;2024-01-30T10:47:42;5.30;99.90
40996;DHT22;26723;57.478;12.066;2024-01-30T10:50:53;5.30;99.90
40996;DHT22;26723;57.478;12.066;2024-01-30T10:54:08;5.40;99.90
40996;DHT22;26723;57.478;12.066;2024-01-30T10:57:17;5.40;99.90
40996;DHT22;26723;57.478;12.066;2024-01-30T11:00:26;5.50;99.90
40996;DHT22;26723;57.478;12.066;2024-01-30T11:03:37;5.50;99.90
40996;DHT22;26723;57.478;12.066;2024-01-30T11:06:49;5.50;99.90
40996;DHT22;26723;57.478;12.066;2024-01-30T11:10:01;5.50;99.90
40996;DHT22;26723;57.478;12.066;2024-01-30T11:13:13;5.50;99.90
40996;DHT22;26723;57.478;12.066;2024-01-30T11:16:22;5.60;99.90
40996;DHT22;26723;57.478;12.066;2024-01-30T11:19:33;5.60;99.90
40996;DHT22;26723;57.478;12.066;2024-01-30T11:22:46;5.60;99.90
40996;DHT22;26723;57.478;12.066;2024-01-30T11:25:55;5.60;99.90
40996;DHT22;26723;57.478;12.066;2024-01-30T11:29:07;5.70;99.90
40996;DHT22;26723;57.478;12.066;2024-01-30T11:32:22;5.70;99.90
40996;DHT22;26723;57.478;12.066;2024-01-30T11:35:34;5.80;99.90
40996;DHT22;26723;57.478;12.066;2024-01-30T11:38:43;5.80;99.90
40996;DHT22;26723;57.478;12.066;2024-01-30T11:41:52;5.90;99.90
40996;DHT22;26723;57.478;12.066;2024-01-30T11:45:01;6.00;99.90
40996;DHT22;26723;57.478;12.066;2024-01-30T11:48:11;6.00;99.90
40996;DHT22;26723;57.478;12.066;2024-01-30T11:51:22;6.10;99.90
40996;DHT22;26723;57.478;12.066;2024-01-30T11:54:30;6.10;99.90
40996;DHT22;26723;57.478;12.066;2024-01-30T11:57:40;6.10;99.90
40996;DHT22;26723;57.478;12.066;2024-01-30T12:00:55;6.10;99.90
40996;DHT22;26723;57.478;12.066;2024-01-30T12:04:05;6.10;99.90
40996;DHT22;26723;57.478;12.066;2024-01-30T12:07:19;6.10;99.90
40996;DHT22;26723;57.478;12.066;2024-01-30T12:10:28;6.10;99.90
40996;DHT22;26723;57.478;12.066;2024-01-30T12:13:37;6.10;99.90
40996;DHT22;26723;57.478;12.066;2024-01-30T12:16:48;6.00;99.90
40996;DHT22;26723;57.478;12.066;2024-01-30T12:20:04;6.00;99.90
40996;DHT22;26723;57.478;12.066;2024-01-30T12:23:15;6.00;99.90
40996;DHT22;26723;57.478;12.066;2024-01-30T12:26:27;6.10;99.90
40996;DHT22;26723;57.478;12.066;2024-01-30T12:29:35;6.10;99.90
40996;DHT22;26723;57.478;12.066;2024-01-30T12:32:49;6.10;99.90
40996;DHT22;26723;57.478;12.066;2024-01-30T12:36:01;6.10;99.90
40996;DHT22;26723;57.478;12.066;2024-01-30T12:39:12;6.20;99.90
40996;DHT22;26723;57.478;12.066;2024-01-30T12:42:21;6.30;99.90
40996;DHT22;26723;57.478;12.066;2024-01-30T12:45:30;6.30;99.90
40996;DHT22;26723;57.478;12.066;2024-01-30T12:48:38;6.30;99.90
40996;DHT22;26723;57.478;12.066;2024-01-30T12:51:47;6.20;99.90
40996;DHT22;26723;57.478;12.066;2024-01-30T12:54:57;6.30;99.90
40996;DHT22;26723;57.478;12.066;2024-01-30T12:58:06;6.30;99.90
40996;DHT22;26723;57.478;12.066;2024-01-30T13:01:14;6.30;99.90
40996;DHT22;26723;57.478;12.066;2024-01-30T13:04:23;6.40;99.90
40996;DHT22;26723;57.478;12.066;2024-01-30T13:07:32;6.40;99.90
40996;DHT22;26723;57.478;12.066;2024-01-30T13:10:42;6.40;99.90
40996;DHT22;26723;57.478;12.066;2024-01-30T13:13:54;6.40;99.90
40996;DHT22;26723;57.478;12.066;2024-01-30T13:17:02;6.50;99.90
40996;DHT22;26723;57.478;12.066;2024-01-30T13:20:11;6.60;99.90
40996;DHT22;26723;57.478;12.066;2024-01-30T13:23:24;6.60;99.90
40996;DHT22;26723;57.478;12.066;2024-01-30T13:26:34;6.70;99.90
40996;DHT22;26723;57.478;12.066;2024-01-30T13:29:42;6.70;99.90
40996;DHT22;26723;57.478;12.066;2024-01-30T13:32:51;6.80;99.90
40996;DHT22;26723;57.478;12.066;2024-01-30T13:36:01;6.80;99.90
40996;DHT22;26723;57.478;12.066;2024-01-30T13:39:10;6.80;99.90
40996;DHT22;26723;57.478;12.066;2024-01-30T13:42:21;6.70;99.90
40996;DHT22;26723;57.478;12.066;2024-01-30T13:45:30;6.70;99.90
40996;DHT22;26723;57.478;12.066;2024-01-30T13:48:38;6.70;99.90
40996;DHT22;26723;57.478;12.066;2024-01-30T13:51:47;6.70;99.90
40996;DHT22;26723;57.478;12.066;2024-01-30T13:54:56;6.80;99.90
40996;DHT22;26723;57.478;12.066;2024-01-30T13:58:06;6.80;99.90
40996;DHT22;26723;57.478;12.066;2024-01-30T14:01:15;6.80;99.90
40996;DHT22;26723;57.478;12.066;2024-01-30T14:04:24;6.90;99.90
40996;DHT22;26723;57.478;12.066;2024-01-30T14:07:33;6.90;99.90
40996;DHT22;26723;57.478;12.066;2024-01-30T14:10:42;7.00;99.90
40996;DHT22;26723;57.478;12.066;2024-01-30T14:13:52;7.00;99.90
40996;DHT22;26723;57.478;12.066;2024-01-30T14:17:01;7.00;99.90
40996;DHT22;26723;57.478;12.066;2024-01-30T14:20:10;7.00;99.90
40996;DHT22;26723;57.478;12.066;2024-01-30T14:23:19;7.10;99.90
40996;DHT22;26723;57.478;12.066;2024-01-30T14:26:28;7.10;99.90
40996;DHT22;26723;57.478;12.066;2024-01-30T14:29:39;7.10;99.90
40996;DHT22;26723;57.478;12.066;2024-01-30T14:32:48;7.00;99.90
40996;DHT22;26723;57.478;12.066;2024-01-30T14:35:58;7.00;99.90
40996;DHT22;26723;57.478;12.066;2024-01-30T14:39:07;6.80;99.90
40996;DHT22;26723;57.478;12.066;2024-01-30T14:42:16;6.90;99.90
40996;DHT22;26723;57.478;12.066;2024-01-30T14:45:26;7.00;99.90
40996;DHT22;26723;57.478;12.066;2024-01-30T14:48:35;7.00;99.90
40996;DHT22;26723;57.478;12.066;2024-01-30T14:51:43;7.00;99.90
40996;DHT22;26723;57.478;12.066;2024-01-30T14:54:52;7.00;99.90
40996;DHT22;26723;57.478;12.066;2024-01-30T14:58:01;7.00;99.90
40996;DHT22;26723;57.478;12.066;2024-01-30T15:01:12;7.00;99.90
40996;DHT22;26723;57.478;12.066;2024-01-30T15:04:21;7.10;99.90
40996;DHT22;26723;57.478;12.066;2024-01-30T15:07:29;7.10;99.90
40996;DHT22;26723;57.478;12.066;2024-01-30T15:10:46;7.10;99.90
40996;DHT22;26723;57.478;12.066;2024-01-30T15:13:55;7.20;99.90
40996;DHT22;26723;57.478;12.066;2024-01-30T15:17:05;7.20;99.90
40996;DHT22;26723;57.478;12.066;2024-01-30T15:20:14;7.10;99.90
40996;DHT22;26723;57.478;12.066;2024-01-30T15:23:22;6.90;99.90
40996;DHT22;26723;57.478;12.066;2024-01-30T15:26:31;6.80;99.90
40996;DHT22;26723;57.478;12.066;2024-01-30T15:29:39;6.70;99.90
40996;DHT22;26723;57.478;12.066;2024-01-30T15:32:49;6.60;99.90
40996;DHT22;26723;57.478;12.066;2024-01-30T15:35:58;6.70;99.90
40996;DHT22;26723;57.478;12.066;2024-01-30T15:39:07;6.80;99.90
40996;DHT22;26723;57.478;12.066;2024-01-30T15:42:17;6.90;99.90
40996;DHT22;26723;57.478;12.066;2024-01-30T15:45:26;6.90;99.90
40996;DHT22;26723;57.478;12.066;2024-01-30T15:48:37;6.90;99.90
40996;DHT22;26723;57.478;12.066;2024-01-30T15:51:45;6.90;99.90
40996;DHT22;26723;57.478;12.066;2024-01-30T15:54:54;6.80;99.90
40996;DHT22;26723;57.478;12.066;2024-01-30T15:58:03;6.80;99.90
40996;DHT22;26723;57.478;12.066;2024-01-30T16:01:13;6.80;99.90
40996;DHT22;26723;57.478;12.066;2024-01-30T16:04:23;6.80;99.90
40996;DHT22;26723;57.478;12.066;2024-01-30T16:07:32;6.70;99.90
40996;DHT22;26723;57.478;12.066;2024-01-30T16:10:41;6.70;99.90
40996;DHT22;26723;57.478;12.066;2024-01-30T16:13:49;6.70;99.90
40996;DHT22;26723;57.478;12.066;2024-01-30T16:16:59;6.70;99.90
40996;DHT22;26723;57.478;12.066;2024-01-30T16:20:09;6.70;99.90
40996;DHT22;26723;57.478;12.066;2024-01-30T16:23:18;6.70;99.90
40996;DHT22;26723;57.478;12.066;2024-01-30T16:26:26;6.70;99.90
40996;DHT22;26723;57.478;12.066;2024-01-30T16:29:36;6.70;99.90
40996;DHT22;26723;57.478;12.066;2024-01-30T16:32:44;6.70;99.90
40996;DHT22;26723;57.478;12.066;2024-01-30T16:35:55;6.70;99.90
40996;DHT22;26723;57.478;12.066;2024-01-30T16:39:04;6.70;99.90
40996;DHT22;26723;57.478;12.066;2024-01-30T16:42:13;6.60;99.90
40996;DHT22;26723;57.478;12.066;2024-01-30T16:45:21;6.60;99.90
40996;DHT22;26723;57.478;12.066;2024-01-30T16:48:30;6.60;99.90
40996;DHT22;26723;57.478;12.066;2024-01-30T16:51:40;6.50;99.90
40996;DHT22;26723;57.478;12.066;2024-01-30T16:54:49;6.50;99.90
40996;DHT22;26723;57.478;12.066;2024-01-30T16:57:58;6.40;99.90
40996;DHT22;26723;57.478;12.066;2024-01-30T17:01:06;6.40;99.90
40996;DHT22;26723;57.478;12.066;2024-01-30T17:04:16;6.40;99.90
40996;DHT22;26723;57.478;12.066;2024-01-30T17:07:29;6.30;99.90
40996;DHT22;26723;57.478;12.066;2024-01-30T17:10:42;6.30;99.90
40996;DHT22;26723;57.478;12.066;2024-01-30T17:13:51;6.30;99.90
40996;DHT22;26723;57.478;12.066;2024-01-30T17:17:00;6.20;99.90
40996;DHT22;26723;57.478;12.066;2024-01-30T17:20:19;6.00;99.90
40996;DHT22;26723;57.478;12.066;2024-01-30T17:23:29;5.90;99.90
40996;DHT22;26723;57.478;12.066;2024-01-30T17:26:41;5.80;99.90
40996;DHT22;26723;57.478;12.066;2024-01-30T17:29:52;5.70;99.90
40996;DHT22;26723;57.478;12.066;2024-01-30T17:33:00;5.60;99.90
40996;DHT22;26723;57.478;12.066;2024-01-30T17:36:09;5.70;99.90
40996;DHT22;26723;57.478;12.066;2024-01-30T17:39:22;5.60;99.90
40996;DHT22;26723;57.478;12.066;2024-01-30T17:42:30;5.50;99.90
40996;DHT22;26723;57.478;12.066;2024-01-30T17:45:39;5.50;99.90
40996;DHT22;26723;57.478;12.066;2024-01-30T17:48:47;5.50;99.90
40996;DHT22;26723;57.478;12.066;2024-01-30T17:51:57;5.50;99.90
40996;DHT22;26723;57.478;12.066;2024-01-30T17:55:09;5.50;99.90
40996;DHT22;26723;57.478;12.066;2024-01-30T17:58:18;5.50;99.90
40996;DHT22;26723;57.478;12.066;2024-01-30T18:01:26;5.40;99.90
40996;DHT22;26723;57.478;12.066;2024-01-30T18:04:37;5.30;99.90
40996;DHT22;26723;57.478;12.066;2024-01-30T18:07:48;5.30;99.90
40996;DHT22;26723;57.478;12.066;2024-01-30T18:11:00;5.30;99.90
40996;DHT22;26723;57.478;12.066;2024-01-30T18:14:08;5.20;99.90
40996;DHT22;26723;57.478;12.066;2024-01-30T18:17:17;5.20;99.90
40996;DHT22;26723;57.478;12.066;2024-01-30T18:20:26;5.20;99.90
40996;DHT22;26723;57.478;12.066;2024-01-30T18:23:36;5.20;99.90
40996;DHT22;26723;57.478;12.066;2024-01-30T18:26:46;5.30;99.90
40996;DHT22;26723;57.478;12.066;2024-01-30T18:29:54;5.30;99.90
40996;DHT22;26723;57.478;12.066;2024-01-30T18:33:06;5.30;99.90
40996;DHT22;26723;57.478;12.066;2024-01-30T18:36:17;5.30;99.90
40996;DHT22;26723;57.478;12.066;2024-01-30T18:39:28;5.30;99.90
40996;DHT22;26723;57.478;12.066;2024-01-30T18:42:41;5.30;99.90
40996;DHT22;26723;57.478;12.066;2024-01-30T18:45:54;5.30;99.90
40996;DHT22;26723;57.478;12.066;2024-01-30T18:49:02;5.20;99.90
40996;DHT22;26723;57.478;12.066;2024-01-30T18:52:11;5.30;99.90
40996;DHT22;26723;57.478;12.066;2024-01-30T18:55:20;5.20;99.90
40996;DHT22;26723;57.478;12.066;2024-01-30T18:58:30;5.30;99.90
40996;DHT22;26723;57.478;12.066;2024-01-30T19:01:39;5.10;99.90
40996;DHT22;26723;57.478;12.066;2024-01-30T19:04:48;5.10;99.90
40996;DHT22;26723;57.478;12.066;2024-01-30T19:07:58;5.10;99.90
40996;DHT22;26723;57.478;12.066;2024-01-30T19:11:06;5.00;99.90
40996;DHT22;26723;57.478;12.066;2024-01-30T19:14:16;5.00;99.90
40996;DHT22;26723;57.478;12.066;2024-01-30T19:17:25;5.10;99.90
40996;DHT22;26723;57.478;12.066;2024-01-30T19:20:34;5.20;99.90
40996;DHT22;26723;57.478;12.066;2024-01-30T19:23:43;5.20;99.90
40996;DHT22;26723;57.478;12.066;2024-01-30T19:26:54;5.30;99.90
40996;DHT22;26723;57.478;12.066;2024-01-30T19:30:05;5.30;99.90
40996;DHT22;26723;57.478;12.066;2024-01-30T19:33:16;5.20;99.90
40996;DHT22;26723;57.478;12.066;2024-01-30T19:36:28;5.20;99.90
40996;DHT22;26723;57.478;12.066;2024-01-30T19:39:37;5.30;99.90
40996;DHT22;26723;57.478;12.066;2024-01-30T19:42:47;5.30;99.90
40996;DHT22;26723;57.478;12.066;2024-01-30T19:45:59;5.30;99.90
40996;DHT22;26723;57.478;12.066;2024-01-30T19:49:08;5.30;99.90
40996;DHT22;26723;57.478;12.066;2024-01-30T19:52:21;5.30;99.90
40996;DHT22;26723;57.478;12.066;2024-01-30T19:55:31;5.30;99.90